createdAt,value
2023-01-10T00:01:49.454Z,8.60
2023-01-10T00:04:17.500Z,8.60
2023-01-10T00:06:45.648Z,8.60
2023-01-10T00:09:15.413Z,8.50
2023-01-10T00:12:00.916Z,8.50
2023-01-10T00:14:29.909Z,8.50
2023-01-10T00:16:58.169Z,8.50
2023-01-10T00:19:26.472Z,8.50
2023-01-10T00:21:54.973Z,8.50
2023-01-10T00:24:24.349Z,8.50
2023-01-10T00:26:53.213Z,8.50
2023-01-10T00:29:24.172Z,8.40
2023-01-10T00:31:52.268Z,8.40
2023-01-10T00:34:20.371Z,8.50
2023-01-10T00:36:49.032Z,8.50
2023-01-10T00:39:20.006Z,8.40
2023-01-10T00:42:07.069Z,8.40
2023-01-10T00:44:35.080Z,8.40
2023-01-10T00:47:03.108Z,8.40
2023-01-10T00:49:31.151Z,8.40
2023-01-10T00:51:59.964Z,8.40
2023-01-10T00:54:28.170Z,8.50
2023-01-10T00:56:57.523Z,8.40
2023-01-10T00:59:25.870Z,8.40
2023-01-10T01:01:54.074Z,8.40
2023-01-10T01:04:22.707Z,8.40
2023-01-10T01:06:50.980Z,8.40
2023-01-10T01:09:19.114Z,8.40
2023-01-10T01:11:47.095Z,8.40
2023-01-10T01:14:16.441Z,8.40
2023-01-10T01:16:44.441Z,8.40
2023-01-10T01:19:12.550Z,8.40
2023-01-10T01:21:40.614Z,8.40
2023-01-10T01:24:09.770Z,8.40
2023-01-10T01:26:37.829Z,8.50
2023-01-10T01:29:05.761Z,8.50
2023-01-10T01:31:35.097Z,8.50
2023-01-10T01:34:03.098Z,8.50
2023-01-10T01:36:31.107Z,8.40
2023-01-10T01:38:59.177Z,8.40
2023-01-10T01:41:45.060Z,8.50
2023-01-10T01:44:17.658Z,8.50
2023-01-10T01:46:51.388Z,8.40
2023-01-10T01:49:25.284Z,8.40
2023-01-10T01:51:57.965Z,8.40
2023-01-10T01:54:26.842Z,8.40
2023-01-10T01:56:58.406Z,8.40
2023-01-10T01:59:29.542Z,8.40
2023-01-10T02:02:03.496Z,8.50
2023-01-10T02:04:39.086Z,8.50
2023-01-10T02:07:07.113Z,8.50
2023-01-10T02:09:41.569Z,8.40
2023-01-10T02:12:11.653Z,8.40
2023-01-10T02:14:39.846Z,8.40
2023-01-10T02:17:11.318Z,8.40
2023-01-10T02:19:50.709Z,8.40
2023-01-10T02:22:50.085Z,8.40
2023-01-10T02:25:37.414Z,8.40
2023-01-10T02:28:26.229Z,8.40
2023-01-10T02:31:24.492Z,8.30
2023-01-10T02:34:02.926Z,8.30
2023-01-10T02:36:40.026Z,8.30
2023-01-10T02:39:17.322Z,8.30
2023-01-10T02:41:51.676Z,8.30
2023-01-10T02:44:26.001Z,8.30
2023-01-10T02:46:54.167Z,8.20
2023-01-10T02:49:23.625Z,8.30
2023-01-10T02:51:51.555Z,8.30
2023-01-10T02:54:24.029Z,8.20
2023-01-10T02:57:19.268Z,8.20
2023-01-10T03:00:14.386Z,8.30
2023-01-10T03:02:58.504Z,8.20
2023-01-10T03:05:41.171Z,8.20
2023-01-10T03:08:18.682Z,8.30
2023-01-10T03:10:51.442Z,8.30
2023-01-10T03:13:27.506Z,8.30
2023-01-10T03:15:57.191Z,8.20
2023-01-10T03:18:29.155Z,8.20
2023-01-10T03:21:00.717Z,8.20
2023-01-10T03:23:29.745Z,8.20
2023-01-10T03:25:59.367Z,8.30
2023-01-10T03:28:32.791Z,8.20
2023-01-10T03:31:06.797Z,8.30
2023-01-10T03:33:35.526Z,8.30
2023-01-10T03:36:16.706Z,8.30
2023-01-10T03:38:47.939Z,8.20
2023-01-10T03:41:21.183Z,8.10
2023-01-10T03:44:13.175Z,8.20
2023-01-10T03:46:53.496Z,8.20
2023-01-10T03:49:23.817Z,8.20
2023-01-10T03:51:54.827Z,8.20
2023-01-10T03:54:22.792Z,8.20
2023-01-10T03:56:52.419Z,8.20
2023-01-10T03:59:23.276Z,8.30
2023-01-10T04:01:51.538Z,8.30
2023-01-10T04:04:19.828Z,8.20
2023-01-10T04:06:47.801Z,8.20
2023-01-10T04:09:17.167Z,8.30
2023-01-10T04:11:45.212Z,8.20
2023-01-10T04:14:13.169Z,8.20
2023-01-10T04:16:41.192Z,8.20
2023-01-10T04:19:09.533Z,8.10
2023-01-10T04:21:37.541Z,8.10
2023-01-10T04:24:05.778Z,8.10
2023-01-10T04:26:36.300Z,8.10
2023-01-10T04:29:06.016Z,8.10
2023-01-10T04:31:34.109Z,8.10
2023-01-10T04:34:02.139Z,8.10
2023-01-10T04:36:30.185Z,8.00
2023-01-10T04:38:58.154Z,8.10
2023-01-10T04:41:26.217Z,8.00
2023-01-10T04:43:55.691Z,8.10
2023-01-10T04:46:23.725Z,8.00
2023-01-10T04:48:52.096Z,8.10
2023-01-10T04:51:20.136Z,8.00
2023-01-10T04:53:48.164Z,8.00
2023-01-10T04:56:19.027Z,8.00
2023-01-10T04:58:47.503Z,7.90
2023-01-10T05:01:20.776Z,8.00
2023-01-10T05:03:48.855Z,7.90
2023-01-10T05:06:17.222Z,8.00
2023-01-10T05:08:45.782Z,8.00
2023-01-10T05:11:13.902Z,8.10
2023-01-10T05:13:42.232Z,8.10
2023-01-10T05:16:10.365Z,8.00
2023-01-10T05:18:39.721Z,8.00
2023-01-10T05:21:09.528Z,8.00
2023-01-10T05:23:38.283Z,7.90
2023-01-10T05:26:07.865Z,7.90
2023-01-10T05:28:35.866Z,7.90
2023-01-10T05:31:03.980Z,8.00
2023-01-10T05:33:31.984Z,7.90
2023-01-10T05:36:04.220Z,8.00
2023-01-10T05:38:33.036Z,7.90
2023-01-10T05:41:01.471Z,7.90
2023-01-10T05:43:30.068Z,7.90
2023-01-10T05:45:58.271Z,7.90
2023-01-10T05:48:26.261Z,7.90
2023-01-10T05:50:54.721Z,7.90
2023-01-10T05:53:24.286Z,7.90
2023-01-10T05:55:57.140Z,7.80
2023-01-10T05:58:25.719Z,7.80
2023-01-10T06:00:55.544Z,7.70
2023-01-10T06:03:24.892Z,7.70
2023-01-10T06:05:53.032Z,7.70
2023-01-10T06:08:21.024Z,7.70
2023-01-10T06:10:50.670Z,7.60
2023-01-10T06:13:18.799Z,7.60
2023-01-10T06:15:46.946Z,7.60
2023-01-10T06:18:15.218Z,7.60
2023-01-10T06:20:43.602Z,7.60
2023-01-10T06:23:11.640Z,7.60
2023-01-10T06:25:40.776Z,7.70
2023-01-10T06:28:11.038Z,7.70
2023-01-10T06:30:41.948Z,7.80
2023-01-10T06:33:11.552Z,7.70
2023-01-10T06:35:40.360Z,7.70
2023-01-10T06:38:08.836Z,7.70
2023-01-10T06:40:36.989Z,7.70
2023-01-10T06:43:05.034Z,7.70
2023-01-10T06:45:34.729Z,7.70
2023-01-10T06:48:02.956Z,7.70
2023-01-10T06:50:31.776Z,7.70
2023-01-10T06:53:01.056Z,7.70
2023-01-10T06:55:30.194Z,7.70
2023-01-10T06:57:58.965Z,7.70
2023-01-10T07:00:28.390Z,7.70
2023-01-10T07:02:59.839Z,7.70
2023-01-10T07:05:28.938Z,7.70
2023-01-10T07:07:57.866Z,7.70
2023-01-10T07:10:25.919Z,7.60
2023-01-10T07:12:56.012Z,7.60
2023-01-10T07:15:24.090Z,7.60
2023-01-10T07:17:52.295Z,7.60
2023-01-10T07:20:21.811Z,7.60
2023-01-10T07:22:54.891Z,7.60
2023-01-10T07:25:23.003Z,7.60
2023-01-10T07:27:50.978Z,7.60
2023-01-10T07:30:19.350Z,7.60
2023-01-10T07:32:47.366Z,7.60
2023-01-10T07:35:15.420Z,7.70
2023-01-10T07:37:44.781Z,7.70
2023-01-10T07:40:13.679Z,7.80
2023-01-10T07:42:41.731Z,7.80
2023-01-10T07:45:10.640Z,7.80
2023-01-10T07:47:38.702Z,7.80
2023-01-10T07:50:07.773Z,7.90
2023-01-10T07:52:35.774Z,7.90
2023-01-10T07:55:05.753Z,7.90
2023-01-10T07:57:33.794Z,7.90
2023-01-10T08:00:01.812Z,7.90
2023-01-10T08:02:33.254Z,7.90
2023-01-10T08:05:01.333Z,7.90
2023-01-10T08:07:30.166Z,7.90
2023-01-10T08:09:58.292Z,7.90
2023-01-10T08:12:27.676Z,7.90
2023-01-10T08:14:55.690Z,7.80
2023-01-10T08:17:23.975Z,7.80
2023-01-10T08:19:51.989Z,7.70
2023-01-10T08:22:19.978Z,7.80
2023-01-10T08:24:48.056Z,7.80
2023-01-10T08:27:16.090Z,7.80
2023-01-10T08:29:45.541Z,7.80
2023-01-10T08:32:13.672Z,7.80
2023-01-10T08:34:41.869Z,7.80
2023-01-10T08:37:13.571Z,7.90
2023-01-10T08:39:41.587Z,7.90
2023-01-10T08:42:09.734Z,7.90
2023-01-10T08:44:38.159Z,7.90
2023-01-10T08:47:07.571Z,7.90
2023-01-10T08:49:35.554Z,7.90
2023-01-10T08:52:03.917Z,7.80
2023-01-10T08:54:33.110Z,7.90
2023-01-10T08:57:01.175Z,7.90
2023-01-10T08:59:29.173Z,7.80
2023-01-10T09:01:58.500Z,7.90
2023-01-10T09:04:32.685Z,7.80
2023-01-10T09:07:00.949Z,7.90
2023-01-10T09:09:28.947Z,7.90
2023-01-10T09:11:57.475Z,7.90
2023-01-10T09:14:25.603Z,7.90
2023-01-10T09:16:53.612Z,7.90
2023-01-10T09:19:21.603Z,8.00
2023-01-10T09:21:50.967Z,8.00
2023-01-10T09:24:19.532Z,8.00
2023-01-10T09:26:47.576Z,8.10
2023-01-10T09:29:15.700Z,8.10
2023-01-10T09:31:43.906Z,8.20
2023-01-10T09:34:12.044Z,8.30
2023-01-10T09:36:40.059Z,8.30
2023-01-10T09:39:09.568Z,8.40
2023-01-10T09:41:57.293Z,8.50
2023-01-10T09:44:38.106Z,8.60
2023-01-10T09:47:22.068Z,8.60
2023-01-10T09:50:02.029Z,8.50
2023-01-10T09:52:34.472Z,8.50
2023-01-10T09:55:17.499Z,8.60
2023-01-10T09:57:46.003Z,8.60
2023-01-10T10:00:20.950Z,8.60
2023-01-10T10:02:52.632Z,8.60
2023-01-10T10:05:22.389Z,8.70
2023-01-10T10:07:55.120Z,8.70
2023-01-10T10:10:27.288Z,8.80
2023-01-10T10:13:26.966Z,8.80
2023-01-10T10:16:04.211Z,8.80
2023-01-10T10:18:38.443Z,8.80
2023-01-10T10:21:14.227Z,8.80
2023-01-10T10:23:54.064Z,8.90
2023-01-10T10:26:33.495Z,8.90
2023-01-10T10:29:23.978Z,8.90
2023-01-10T10:32:04.983Z,9.00
2023-01-10T10:34:40.242Z,9.10
2023-01-10T10:37:14.637Z,9.10
2023-01-10T10:39:46.551Z,9.10
2023-01-10T10:42:18.962Z,9.20
2023-01-10T10:44:53.380Z,9.20
2023-01-10T10:47:23.590Z,9.20
2023-01-10T10:49:55.653Z,9.20
2023-01-10T10:52:26.238Z,9.20
2023-01-10T10:54:54.994Z,9.30
2023-01-10T10:57:27.584Z,9.30
2023-01-10T10:59:57.572Z,9.40
2023-01-10T11:02:29.471Z,9.40
2023-01-10T11:05:00.387Z,9.50
2023-01-10T11:07:32.841Z,9.50
2023-01-10T11:10:10.245Z,9.60
2023-01-10T11:12:42.025Z,9.60
2023-01-10T11:15:11.013Z,9.70
2023-01-10T11:17:41.098Z,9.70
2023-01-10T11:20:16.970Z,9.70
2023-01-10T11:22:49.051Z,9.70
2023-01-10T11:25:19.111Z,9.80
2023-01-10T11:27:52.465Z,9.80
2023-01-10T11:30:24.879Z,9.70
2023-01-10T11:32:55.492Z,9.80
2023-01-10T11:35:27.966Z,9.80
2023-01-10T11:38:03.631Z,9.80
2023-01-10T11:40:32.596Z,9.80
2023-01-10T11:43:22.934Z,9.80
2023-01-10T11:45:56.039Z,9.80
2023-01-10T11:48:50.436Z,9.80
2023-01-10T11:51:20.616Z,9.90
2023-01-10T11:53:51.315Z,9.90
2023-01-10T11:56:27.776Z,9.90
2023-01-10T11:58:59.974Z,9.90
2023-01-10T12:01:37.259Z,9.90
2023-01-10T12:04:08.881Z,9.90
2023-01-10T12:06:37.358Z,9.90
2023-01-10T12:09:05.376Z,9.90
2023-01-10T12:11:35.789Z,9.90
2023-01-10T12:14:20.963Z,10.00
2023-01-10T12:16:59.365Z,10.10
2023-01-10T12:19:28.076Z,10.00
2023-01-10T12:21:59.898Z,10.00
2023-01-10T12:24:33.870Z,10.00
2023-01-10T12:27:03.616Z,10.00
2023-01-10T12:29:35.639Z,10.20
2023-01-10T12:32:05.905Z,10.10
2023-01-10T12:34:41.605Z,10.00
2023-01-10T12:37:18.956Z,9.90
2023-01-10T12:39:50.190Z,9.90
2023-01-10T12:42:46.477Z,10.00
2023-01-10T12:45:20.521Z,9.90
2023-01-10T12:48:00.196Z,9.90
2023-01-10T12:50:32.611Z,9.80
2023-01-10T12:53:04.799Z,9.80
2023-01-10T12:55:37.800Z,9.70
2023-01-10T12:58:06.981Z,9.70
2023-01-10T13:00:47.632Z,9.80
2023-01-10T13:03:21.359Z,9.80
2023-01-10T13:05:52.002Z,9.90
2023-01-10T13:08:22.682Z,9.80
2023-01-10T13:10:53.522Z,9.80
2023-01-10T13:13:29.081Z,9.70
2023-01-10T13:16:05.968Z,9.70
2023-01-10T13:18:34.847Z,9.70
2023-01-10T13:21:08.955Z,9.70
2023-01-10T13:23:41.004Z,9.70
2023-01-10T13:26:10.470Z,9.70
2023-01-10T13:28:40.961Z,9.70
2023-01-10T13:31:25.346Z,9.70
2023-01-10T13:33:56.006Z,9.70
2023-01-10T13:36:27.861Z,9.70
2023-01-10T13:38:57.677Z,9.70
2023-01-10T13:42:03.762Z,9.70
2023-01-10T13:44:51.857Z,9.70
2023-01-10T13:48:04.557Z,9.70
2023-01-10T13:51:08.783Z,9.60
2023-01-10T13:54:05.493Z,9.60
2023-01-10T13:56:44.299Z,9.50
2023-01-10T13:59:32.824Z,9.50
2023-01-10T14:02:20.320Z,9.50
2023-01-10T14:04:53.843Z,9.60
2023-01-10T14:07:28.651Z,9.60
2023-01-10T14:10:04.836Z,9.60
2023-01-10T14:12:36.459Z,9.50
2023-01-10T14:15:09.174Z,9.50
2023-01-10T14:17:38.885Z,9.40
2023-01-10T14:20:19.290Z,9.30
2023-01-10T14:23:03.677Z,9.30
2023-01-10T14:25:34.140Z,9.30
2023-01-10T14:28:03.220Z,9.30
2023-01-10T14:30:34.254Z,9.40
2023-01-10T14:33:06.860Z,9.30
2023-01-10T14:35:40.031Z,9.30
2023-01-10T14:38:17.424Z,9.40
2023-01-10T14:40:48.672Z,9.40
2023-01-10T14:43:20.050Z,9.40
2023-01-10T14:45:54.985Z,9.30
2023-01-10T14:48:28.888Z,9.30
2023-01-10T14:51:24.445Z,9.30
2023-01-10T14:54:01.318Z,9.40
2023-01-10T14:56:31.126Z,9.40
2023-01-10T14:58:59.141Z,9.40
2023-01-10T15:01:29.692Z,9.40
2023-01-10T15:03:58.709Z,9.20
2023-01-10T15:06:28.140Z,9.30
2023-01-10T15:09:03.718Z,9.30
2023-01-10T15:11:33.612Z,9.20
2023-01-10T15:14:07.526Z,9.20
2023-01-10T15:16:38.889Z,9.10
2023-01-10T15:19:07.157Z,9.10
2023-01-10T15:21:43.326Z,9.10
2023-01-10T15:24:25.829Z,9.10
2023-01-10T15:26:55.177Z,9.10
2023-01-10T15:29:25.878Z,9.10
2023-01-10T15:31:57.400Z,9.10
2023-01-10T15:34:29.876Z,9.20
2023-01-10T15:37:02.900Z,9.10
2023-01-10T15:39:33.610Z,9.10
2023-01-10T15:42:05.138Z,9.10
2023-01-10T15:44:40.003Z,9.10
2023-01-10T15:47:23.354Z,9.10
2023-01-10T15:49:54.222Z,9.10
2023-01-10T15:52:24.543Z,9.10
2023-01-10T15:54:52.777Z,9.10
2023-01-10T15:57:29.534Z,9.00
2023-01-10T15:59:59.035Z,9.10
2023-01-10T16:02:31.514Z,9.00
2023-01-10T16:05:11.378Z,9.00
2023-01-10T16:07:49.286Z,8.90
2023-01-10T16:10:21.939Z,8.90
2023-01-10T16:13:07.755Z,8.90
2023-01-10T16:15:38.185Z,8.80
2023-01-10T16:18:06.818Z,8.80
2023-01-10T16:20:38.235Z,8.80
2023-01-10T16:23:13.373Z,8.80
2023-01-10T16:25:44.897Z,8.80
2023-01-10T16:28:13.744Z,8.80
2023-01-10T16:30:46.631Z,8.70
2023-01-10T16:33:17.641Z,8.70
2023-01-10T16:35:46.943Z,8.70
2023-01-10T16:38:17.713Z,8.60
2023-01-10T16:40:51.755Z,8.60
2023-01-10T16:43:19.859Z,8.60
2023-01-10T16:45:49.188Z,8.50
2023-01-10T16:48:18.834Z,8.50
2023-01-10T16:50:48.267Z,8.50
2023-01-10T16:53:19.380Z,8.50
2023-01-10T16:55:49.307Z,8.50
2023-01-10T16:58:18.888Z,8.40
2023-01-10T17:00:50.736Z,8.40
2023-01-10T17:03:22.373Z,8.30
2023-01-10T17:05:51.236Z,8.20
2023-01-10T17:08:22.980Z,8.20
2023-01-10T17:10:56.231Z,8.20
2023-01-10T17:13:27.442Z,8.20
2023-01-10T17:15:55.811Z,8.20
2023-01-10T17:18:25.969Z,8.20
2023-01-10T17:20:55.233Z,8.20
2023-01-10T17:23:26.257Z,8.30
2023-01-10T17:26:00.792Z,8.20
2023-01-10T17:28:29.982Z,8.20
2023-01-10T17:30:58.698Z,8.20
2023-01-10T17:33:27.788Z,8.10
2023-01-10T17:35:57.965Z,8.10
2023-01-10T17:38:28.800Z,8.10
2023-01-10T17:41:02.101Z,8.00
2023-01-10T17:43:31.075Z,8.00
2023-01-10T17:45:59.827Z,8.00
2023-01-10T17:48:28.614Z,8.10
2023-01-10T17:50:59.341Z,8.20
2023-01-10T17:53:29.527Z,8.30
2023-01-10T17:55:59.904Z,8.20
2023-01-10T17:58:28.845Z,8.10
2023-01-10T18:00:57.382Z,8.00
2023-01-10T18:03:26.632Z,8.00
2023-01-10T18:05:56.701Z,7.90
2023-01-10T18:08:25.722Z,7.90
2023-01-10T18:11:00.145Z,7.90
2023-01-10T18:13:30.474Z,7.90
2023-01-10T18:15:59.496Z,7.90
2023-01-10T18:18:28.079Z,7.90
2023-01-10T18:20:58.176Z,7.90
2023-01-10T18:23:29.034Z,7.90
2023-01-10T18:26:00.936Z,7.80
2023-01-10T18:28:40.447Z,7.90
2023-01-10T18:31:11.862Z,7.80
2023-01-10T18:33:40.282Z,7.80
2023-01-10T18:36:11.315Z,7.80
2023-01-10T18:38:39.466Z,7.70
2023-01-10T18:41:09.053Z,7.70
2023-01-10T18:43:37.142Z,7.70
2023-01-10T18:46:09.102Z,7.70
2023-01-10T18:48:40.562Z,7.60
2023-01-10T18:51:12.213Z,7.60
2023-01-10T18:53:40.502Z,7.60
2023-01-10T18:56:12.117Z,7.60
2023-01-10T18:58:48.379Z,7.60
2023-01-10T19:01:18.996Z,7.60
2023-01-10T19:03:50.162Z,7.60
2023-01-10T19:06:21.591Z,7.60
2023-01-10T19:08:51.651Z,7.60
2023-01-10T19:11:21.530Z,7.60
2023-01-10T19:13:52.123Z,7.60
2023-01-10T19:16:23.296Z,7.60
2023-01-10T19:18:53.266Z,7.70
2023-01-10T19:21:21.712Z,7.70
2023-01-10T19:23:52.219Z,7.70
2023-01-10T19:26:22.395Z,7.70
2023-01-10T19:28:51.014Z,7.70
2023-01-10T19:31:20.947Z,7.70
2023-01-10T19:33:50.399Z,7.80
2023-01-10T19:36:20.060Z,7.80
2023-01-10T19:38:48.376Z,7.80
2023-01-10T19:41:16.746Z,7.80
2023-01-10T19:43:46.908Z,7.90
2023-01-10T19:46:15.921Z,7.90
2023-01-10T19:48:44.109Z,7.90
2023-01-10T19:51:14.043Z,7.90
2023-01-10T19:53:45.466Z,7.90
2023-01-10T19:56:18.414Z,8.00
2023-01-10T19:58:48.955Z,7.90
2023-01-10T20:01:20.630Z,7.90
2023-01-10T20:03:49.416Z,7.90
2023-01-10T20:06:20.782Z,8.00
2023-01-10T20:08:49.612Z,8.00
2023-01-10T20:11:18.833Z,8.00
2023-01-10T20:13:49.293Z,8.00
2023-01-10T20:16:19.563Z,8.10
2023-01-10T20:18:48.407Z,8.30
2023-01-10T20:21:18.878Z,8.40
2023-01-10T20:23:47.619Z,8.40
2023-01-10T20:26:18.718Z,8.40
2023-01-10T20:28:48.623Z,8.30
2023-01-10T20:31:19.719Z,8.20
2023-01-10T20:33:47.926Z,8.20
2023-01-10T20:36:17.855Z,8.20
2023-01-10T20:38:46.158Z,8.20
2023-01-10T20:41:15.798Z,8.20
2023-01-10T20:43:44.798Z,8.20
2023-01-10T20:46:16.903Z,8.30
2023-01-10T20:48:46.073Z,8.30
2023-01-10T20:51:17.001Z,8.40
2023-01-10T20:53:45.317Z,8.40
2023-01-10T20:56:14.891Z,8.40
2023-01-10T20:58:43.074Z,8.40
2023-01-10T21:01:24.928Z,8.40
2023-01-10T21:04:01.031Z,8.40
2023-01-10T21:06:29.778Z,8.40
2023-01-10T21:08:58.079Z,8.40
2023-01-10T21:11:26.217Z,8.50
2023-01-10T21:13:54.354Z,8.50
2023-01-10T21:16:24.100Z,8.60
2023-01-10T21:18:52.878Z,8.60
2023-01-10T21:21:23.555Z,8.60
2023-01-10T21:23:54.884Z,8.60
2023-01-10T21:26:23.601Z,8.60
2023-01-10T21:28:51.734Z,8.70
2023-01-10T21:31:21.726Z,8.70
2023-01-10T21:33:50.148Z,8.70
2023-01-10T21:36:18.906Z,8.70
2023-01-10T21:38:49.468Z,8.70
2023-01-10T21:41:41.302Z,8.70
2023-01-10T21:44:09.607Z,8.70
2023-01-10T21:46:38.219Z,8.70
2023-01-10T21:49:06.727Z,8.70
2023-01-10T21:51:35.001Z,8.70
2023-01-10T21:54:05.018Z,8.80
2023-01-10T21:56:33.345Z,8.70
2023-01-10T21:59:01.584Z,8.80
2023-01-10T22:01:29.652Z,8.70
2023-01-10T22:03:57.809Z,8.70
2023-01-10T22:06:26.154Z,8.80
2023-01-10T22:08:54.520Z,8.70
2023-01-10T22:11:23.978Z,8.70
2023-01-10T22:13:52.564Z,8.70
2023-01-10T22:16:20.665Z,8.80
2023-01-10T22:18:48.996Z,8.70
2023-01-10T22:21:19.647Z,8.80
2023-01-10T22:23:47.788Z,8.80
2023-01-10T22:26:17.004Z,8.80
2023-01-10T22:28:46.655Z,8.80
2023-01-10T22:31:14.886Z,8.80
2023-01-10T22:33:43.102Z,8.80
2023-01-10T22:36:15.098Z,8.90
2023-01-10T22:38:43.413Z,9.10
2023-01-10T22:41:13.399Z,9.10
2023-01-10T22:43:41.400Z,9.00
2023-01-10T22:46:11.071Z,9.00
2023-01-10T22:48:39.642Z,9.00
2023-01-10T22:51:08.527Z,9.00
2023-01-10T22:53:36.828Z,9.00
2023-01-10T22:56:07.318Z,9.00
2023-01-10T22:58:35.431Z,9.00
2023-01-10T23:01:04.872Z,9.00
2023-01-10T23:03:34.867Z,9.00
2023-01-10T23:06:03.090Z,9.00
2023-01-10T23:08:31.208Z,9.00
2023-01-10T23:10:59.429Z,9.10
2023-01-10T23:13:28.397Z,9.10
2023-01-10T23:15:57.746Z,9.10
2023-01-10T23:18:26.161Z,9.00
2023-01-10T23:20:55.788Z,9.00
2023-01-10T23:23:24.396Z,9.20
2023-01-10T23:26:02.265Z,9.10
2023-01-10T23:28:31.785Z,9.00
2023-01-10T23:30:59.863Z,8.90
2023-01-10T23:33:28.078Z,8.90
2023-01-10T23:35:57.942Z,8.90
2023-01-10T23:38:25.940Z,8.90
2023-01-10T23:40:54.325Z,8.90
2023-01-10T23:43:23.098Z,8.90
2023-01-10T23:45:51.416Z,8.90
2023-01-10T23:48:19.471Z,8.90
2023-01-10T23:50:48.663Z,8.90
2023-01-10T23:53:19.126Z,9.00
2023-01-10T23:55:47.668Z,9.10
2023-01-10T23:58:16.971Z,9.00
